Time;durP1;ratioP1;P1;durP2;ratioP2;P2;SDS_P1;SDS_P2;PMS_P1;PMS_P2;Temp;Humidity;BMP_temperature;BMP_pressure;BME280_temperature;BME280_humidity;BME280_pressure;Samples;Min_cycle;Max_cycle;Signal;HPM_P1;HPM_P2
2022/03/13 00:01:47;;;;;;;71.50;44.85;;;25.60;99.90;;;;;;5055020;28;20036;-64
2022/03/13 00:04:13;;;;;;;60.47;38.47;;;25.60;99.90;;;;;;5056791;28;20032;-66
2022/03/13 00:06:43;;;;;;;70.72;46.92;;;25.60;99.90;;;;;;5071090;28;20032;-66
2022/03/13 00:09:14;;;;;;;115.25;80.65;;;25.60;99.90;;;;;;5061051;28;20033;-66
2022/03/13 00:11:43;;;;;;;64.80;45.73;;;25.70;99.90;;;;;;5069323;28;20073;-65
2022/03/13 00:14:13;;;;;;;43.55;28.40;;;25.80;99.90;;;;;;5042912;28;20045;-65
2022/03/13 00:16:40;;;;;;;27.75;21.98;;;25.80;99.90;;;;;;5051135;28;20029;-63
2022/03/13 00:19:07;;;;;;;28.80;20.13;;;25.80;99.90;;;;;;5053817;28;20078;-66
2022/03/13 00:21:35;;;;;;;18.08;13.82;;;25.80;99.90;;;;;;5054821;28;20087;-65
2022/03/13 00:24:03;;;;;;;35.63;19.95;;;25.80;99.90;;;;;;5068096;28;20039;-65
2022/03/13 00:26:29;;;;;;;20.30;14.15;;;25.80;99.90;;;;;;5056066;28;20108;-66
2022/03/13 00:28:56;;;;;;;21.60;12.90;;;25.90;99.90;;;;;;5053543;28;20041;-66
2022/03/13 00:31:24;;;;;;;22.98;17.15;;;25.90;99.90;;;;;;5054654;28;20387;-65
2022/03/13 00:33:51;;;;;;;33.38;19.10;;;26.00;99.90;;;;;;5053641;28;20036;-65
2022/03/13 00:36:18;;;;;;;30.83;18.77;;;26.00;99.90;;;;;;5053562;28;20071;-65
2022/03/13 00:38:44;;;;;;;44.67;25.50;;;26.00;99.90;;;;;;5071454;28;20471;-65
2022/03/13 00:41:11;;;;;;;43.58;26.00;;;26.00;99.90;;;;;;5062209;28;20037;-65
2022/03/13 00:43:38;;;;;;;32.80;20.45;;;26.10;99.90;;;;;;5056593;28;20043;-64
2022/03/13 00:46:05;;;;;;;33.38;22.23;;;26.10;99.90;;;;;;5057190;28;20108;-66
2022/03/13 00:48:31;;;;;;;39.13;23.92;;;26.10;99.90;;;;;;5057086;28;20200;-65
2022/03/13 00:50:59;;;;;;;45.45;26.38;;;26.10;99.90;;;;;;5057124;28;20259;-65
2022/03/13 00:53:26;;;;;;;46.58;26.95;;;26.20;99.90;;;;;;5057165;28;20442;-66
2022/03/13 00:55:53;;;;;;;44.35;27.85;;;26.20;99.90;;;;;;5057371;28;20671;-65
2022/03/13 00:58:19;;;;;;;44.90;28.60;;;26.30;99.90;;;;;;5057104;28;20083;-66
2022/03/13 01:00:46;;;;;;;37.45;24.08;;;26.30;99.90;;;;;;5055482;28;20053;-65
2022/03/13 01:03:47;;;;;;;37.90;21.77;;;26.40;99.90;;;;;;5050517;28;20037;-64
2022/03/13 01:06:14;;;;;;;19.10;13.65;;;26.40;99.90;;;;;;5049455;28;20049;-65
2022/03/13 01:08:43;;;;;;;21.30;14.35;;;26.50;99.90;;;;;;5053406;28;20384;-65
2022/03/13 01:11:09;;;;;;;21.67;15.38;;;26.50;99.90;;;;;;5056852;28;20017;-65
2022/03/13 01:13:36;;;;;;;23.80;16.75;;;26.50;99.90;;;;;;5056363;28;20070;-66
2022/03/13 01:16:16;;;;;;;30.58;16.17;;;26.50;99.90;;;;;;5056635;28;20037;-65
2022/03/13 01:18:50;;;;;;;21.55;16.45;;;26.60;99.90;;;;;;5056598;28;20029;-65
2022/03/13 01:21:18;;;;;;;31.92;21.95;;;26.80;99.90;;;;;;5056507;28;20078;-65
2022/03/13 01:24:09;;;;;;;40.00;24.80;;;27.00;99.90;;;;;;5056474;28;20033;-65
2022/03/13 01:26:38;;;;;;;45.95;28.80;;;27.10;99.90;;;;;;5056156;28;20040;-65
2022/03/13 01:29:13;;;;;;;35.13;23.35;;;27.10;99.90;;;;;;5056375;28;20040;-64
2022/03/13 01:31:47;;;;;;;48.70;27.83;;;27.10;99.90;;;;;;5066709;28;20131;-65
2022/03/13 01:34:26;;;;;;;35.17;25.33;;;27.10;99.90;;;;;;5076010;28;20393;-65
2022/03/13 01:36:53;;;;;;;33.05;24.58;;;27.20;99.90;;;;;;5065381;28;20033;-65
2022/03/13 01:39:20;;;;;;;36.00;26.83;;;27.20;99.90;;;;;;5057607;28;20166;-65
2022/03/13 01:41:46;;;;;;;40.08;28.98;;;27.30;99.90;;;;;;5069393;28;20033;-64
2022/03/13 01:44:13;;;;;;;38.13;26.95;;;27.30;99.90;;;;;;5069557;28;20041;-64
2022/03/13 01:46:40;;;;;;;31.98;24.85;;;27.40;99.90;;;;;;5051761;28;20036;-64
2022/03/13 01:49:08;;;;;;;31.95;24.38;;;27.40;99.90;;;;;;5057450;28;20033;-64
2022/03/13 01:51:36;;;;;;;36.80;27.40;;;27.50;99.90;;;;;;5072641;28;20020;-66
2022/03/13 01:54:06;;;;;;;37.47;28.40;;;27.60;99.90;;;;;;5075255;28;20056;-65
2022/03/13 01:56:35;;;;;;;41.00;29.38;;;27.70;99.90;;;;;;5073312;28;20521;-68
2022/03/13 01:59:03;;;;;;;44.25;29.17;;;27.70;99.90;;;;;;5057149;28;20036;-66
2022/03/13 02:01:30;;;;;;;39.08;29.10;;;27.90;99.90;;;;;;5056065;28;20127;-68
2022/03/13 02:03:57;;;;;;;50.60;32.10;;;27.90;99.90;;;;;;5057005;28;20029;-66
2022/03/13 02:06:25;;;;;;;46.13;33.78;;;27.90;99.90;;;;;;5055919;28;20083;-63
2022/03/13 02:08:54;;;;;;;48.30;32.70;;;27.90;99.90;;;;;;5054249;28;20036;-63
2022/03/13 02:11:23;;;;;;;40.67;31.52;;;28.00;99.90;;;;;;5054868;28;20043;-63
2022/03/13 02:13:54;;;;;;;42.55;30.83;;;28.00;99.90;;;;;;5073348;28;20440;-63
2022/03/13 02:16:22;;;;;;;52.55;30.67;;;28.10;99.90;;;;;;5062576;28;20033;-63
2022/03/13 02:18:52;;;;;;;43.58;30.35;;;28.20;99.90;;;;;;5052846;28;20035;-62
2022/03/13 02:21:23;;;;;;;39.90;29.00;;;28.30;99.90;;;;;;5049381;28;20041;-62
2022/03/13 02:23:49;;;;;;;39.60;29.08;;;28.40;99.90;;;;;;5055496;28;20029;-62
2022/03/13 02:26:20;;;;;;;48.55;31.73;;;28.40;99.90;;;;;;5052883;28;20079;-65
2022/03/13 02:28:52;;;;;;;111.15;80.72;;;28.50;99.90;;;;;;5050773;28;20026;-61
2022/03/13 02:31:24;;;;;;;;;;;28.50;99.90;;;;;;5052525;28;20110;-62
2022/03/13 02:33:53;;;;;;;177.88;147.32;;;28.50;99.90;;;;;;5047318;28;19963;-63
2022/03/13 02:36:34;;;;;;;45.72;33.80;;;28.60;99.90;;;;;;5052495;28;20045;-63
2022/03/13 02:39:03;;;;;;;36.15;27.15;;;28.70;99.90;;;;;;5053078;28;20032;-63
2022/03/13 02:41:30;;;;;;;41.65;28.13;;;28.60;99.90;;;;;;5054705;28;20473;-63
2022/03/13 02:43:58;;;;;;;39.63;27.63;;;28.70;99.90;;;;;;5056852;28;20040;-64
2022/03/13 02:46:46;;;;;;;35.60;24.30;;;28.60;99.90;;;;;;5058475;28;20025;-63
2022/03/13 02:49:23;;;;;;;39.13;26.83;;;28.70;99.90;;;;;;5064565;28;20025;-64
2022/03/13 02:51:52;;;;;;;36.22;23.52;;;28.70;99.90;;;;;;5062259;28;20033;-62
2022/03/13 02:54:20;;;;;;;35.22;24.73;;;28.80;99.90;;;;;;5055471;28;20037;-62
2022/03/13 02:56:48;;;;;;;34.72;25.88;;;28.90;99.90;;;;;;5055076;28;20037;-61
2022/03/13 02:59:15;;;;;;;34.33;25.73;;;28.80;99.90;;;;;;5056203;28;20112;-63
2022/03/13 03:01:42;;;;;;;33.90;24.80;;;28.80;99.90;;;;;;5055111;28;20024;-62
2022/03/13 03:04:10;;;;;;;34.45;24.25;;;28.70;99.90;;;;;;5058660;28;20334;-62
2022/03/13 03:06:38;;;;;;;29.58;21.38;;;28.70;99.90;;;;;;5052792;28;20025;-63
2022/03/13 03:09:05;;;;;;;34.13;23.92;;;28.60;99.90;;;;;;5053415;28;20454;-62
2022/03/13 03:11:33;;;;;;;33.67;22.42;;;28.80;99.90;;;;;;5054571;28;20025;-65
2022/03/13 03:14:02;;;;;;;31.63;22.20;;;28.90;99.90;;;;;;5063871;28;20077;-64
2022/03/13 03:16:29;;;;;;;34.45;24.10;;;29.00;99.90;;;;;;5056661;28;20036;-64
2022/03/13 03:18:58;;;;;;;37.92;25.58;;;28.90;99.90;;;;;;5053837;28;20095;-64
2022/03/13 03:21:25;;;;;;;36.25;26.73;;;28.90;99.90;;;;;;5057318;28;20109;-64
2022/03/13 03:23:51;;;;;;;38.72;22.90;;;28.90;99.90;;;;;;5048862;28;20163;-64
2022/03/13 03:26:18;;;;;;;32.10;23.02;;;28.90;99.90;;;;;;5034393;28;20052;-64
2022/03/13 03:28:46;;;;;;;32.75;22.90;;;28.90;99.90;;;;;;5051810;28;20028;-65
2022/03/13 03:31:13;;;;;;;30.80;21.73;;;28.90;99.90;;;;;;5055325;28;20029;-64
2022/03/13 03:33:39;;;;;;;28.45;22.10;;;28.90;99.90;;;;;;5054435;28;20113;-62
2022/03/13 03:36:06;;;;;;;32.47;22.02;;;28.90;99.90;;;;;;5060709;28;20363;-61
2022/03/13 03:38:33;;;;;;;28.92;19.02;;;28.90;99.90;;;;;;5065455;28;20037;-62
2022/03/13 03:41:00;;;;;;;25.58;19.15;;;29.00;99.90;;;;;;5054360;28;20029;-62
2022/03/13 03:43:26;;;;;;;28.00;20.60;;;29.00;99.90;;;;;;5067421;28;20089;-62
2022/03/13 03:45:56;;;;;;;38.33;20.40;;;29.10;99.90;;;;;;5069800;28;20111;-62
2022/03/13 03:48:23;;;;;;;25.42;20.05;;;29.10;99.90;;;;;;5053680;28;20032;-62
2022/03/13 03:50:50;;;;;;;23.83;19.80;;;29.30;99.90;;;;;;5064266;28;20497;-62
2022/03/13 03:53:16;;;;;;;24.38;18.55;;;29.40;99.90;;;;;;5054066;28;20531;-62
2022/03/13 03:55:43;;;;;;;34.63;25.25;;;29.40;99.90;;;;;;5056393;28;20359;-61
2022/03/13 03:58:10;;;;;;;32.15;23.13;;;29.50;99.90;;;;;;5049624;28;20370;-62
2022/03/13 04:00:36;;;;;;;33.50;24.50;;;29.60;99.90;;;;;;5053741;28;20478;-62
2022/03/13 04:03:03;;;;;;;29.40;21.17;;;29.60;99.90;;;;;;5054062;28;20040;-61
2022/03/13 04:05:30;;;;;;;26.73;20.10;;;29.50;99.90;;;;;;5052352;28;20029;-62
2022/03/13 04:07:56;;;;;;;24.48;19.50;;;29.50;99.90;;;;;;5054351;28;20082;-62
2022/03/13 04:10:24;;;;;;;28.40;19.73;;;29.60;99.90;;;;;;5053636;28;20082;-60
2022/03/13 04:12:50;;;;;;;26.85;20.13;;;29.60;99.90;;;;;;5053976;28;20021;-61
2022/03/13 04:15:17;;;;;;;30.25;20.05;;;29.60;99.90;;;;;;5052154;28;20049;-61
2022/03/13 04:17:44;;;;;;;29.25;21.58;;;29.60;99.90;;;;;;5054363;28;20032;-62
2022/03/13 04:20:11;;;;;;;31.15;22.65;;;29.60;99.90;;;;;;5055876;28;20082;-63
2022/03/13 04:22:37;;;;;;;31.48;23.77;;;29.60;99.90;;;;;;5052645;28;20043;-62
2022/03/13 04:25:05;;;;;;;35.25;24.33;;;29.50;99.90;;;;;;5049338;28;20033;-63
2022/03/13 04:27:32;;;;;;;29.58;22.40;;;29.60;99.90;;;;;;5052259;28;20021;-64
2022/03/13 04:29:59;;;;;;;34.05;21.40;;;29.60;99.90;;;;;;5053695;28;20053;-64
2022/03/13 04:32:26;;;;;;;26.33;19.77;;;29.90;99.90;;;;;;5052517;28;20078;-63
2022/03/13 04:34:53;;;;;;;23.23;19.27;;;30.10;99.90;;;;;;5052283;28;20087;-63
2022/03/13 04:37:20;;;;;;;29.50;20.70;;;30.20;99.90;;;;;;5054484;28;20040;-63
2022/03/13 04:39:51;;;;;;;24.98;20.23;;;30.20;99.90;;;;;;5049420;28;20055;-61
2022/03/13 04:42:18;;;;;;;30.38;21.70;;;30.30;99.90;;;;;;5055092;28;20041;-63
2022/03/13 04:44:45;;;;;;;27.60;20.02;;;30.20;99.90;;;;;;5054066;28;20489;-62
2022/03/13 04:47:12;;;;;;;33.78;21.52;;;30.20;99.90;;;;;;5046967;28;20433;-61
2022/03/13 04:49:39;;;;;;;28.38;19.33;;;30.10;99.90;;;;;;5070400;28;20056;-61
2022/03/13 04:52:06;;;;;;;33.83;18.85;;;30.00;99.90;;;;;;5054447;28;20021;-61
2022/03/13 04:54:32;;;;;;;22.88;17.30;;;30.00;99.90;;;;;;5061487;28;20115;-61
2022/03/13 04:57:03;;;;;;;26.33;18.67;;;30.00;99.90;;;;;;5053435;28;20033;-61
2022/03/13 04:59:29;;;;;;;25.17;18.73;;;30.00;99.90;;;;;;5053470;28;20029;-62
2022/03/13 05:01:56;;;;;;;24.88;18.23;;;30.00;99.90;;;;;;5054022;28;20033;-62
2022/03/13 05:04:23;;;;;;;26.70;19.10;;;30.00;99.90;;;;;;5055077;28;20041;-62
2022/03/13 05:06:49;;;;;;;25.40;17.05;;;30.10;99.90;;;;;;5053343;28;20048;-61
2022/03/13 05:09:16;;;;;;;21.83;16.52;;;30.30;99.90;;;;;;5052557;28;20377;-61
2022/03/13 05:11:43;;;;;;;25.67;18.23;;;30.40;99.90;;;;;;5052553;28;20070;-61
2022/03/13 05:14:09;;;;;;;21.27;16.83;;;30.60;99.90;;;;;;5057718;28;20071;-62
2022/03/13 05:16:36;;;;;;;26.85;17.77;;;30.70;99.90;;;;;;5059133;28;20029;-61
2022/03/13 05:19:06;;;;;;;24.65;17.52;;;30.80;99.90;;;;;;5064398;28;20032;-61
2022/03/13 05:21:34;;;;;;;29.75;20.05;;;30.90;99.90;;;;;;5067558;28;20626;-61
2022/03/13 05:24:01;;;;;;;29.98;20.08;;;30.90;99.90;;;;;;5058793;28;20041;-60
2022/03/13 05:26:28;;;;;;;23.80;17.60;;;31.00;99.90;;;;;;5070251;28;20107;-61
2022/03/13 05:28:55;;;;;;;35.22;24.52;;;31.00;99.90;;;;;;5050256;28;20147;-62
2022/03/13 05:31:21;;;;;;;28.27;20.30;;;30.90;99.90;;;;;;5052448;28;20429;-61
2022/03/13 05:33:48;;;;;;;23.30;18.30;;;31.00;99.90;;;;;;5059685;28;20194;-61
2022/03/13 05:36:15;;;;;;;27.40;21.98;;;31.00;99.90;;;;;;5055873;28;20100;-60
2022/03/13 05:38:42;;;;;;;35.50;23.70;;;31.00;99.90;;;;;;5060673;28;20021;-62
2022/03/13 05:41:10;;;;;;;22.35;18.33;;;31.10;99.90;;;;;;5056705;28;20037;-62
2022/03/13 05:43:43;;;;;;;28.73;18.10;;;31.10;99.90;;;;;;5056963;28;20029;-61
2022/03/13 05:46:10;;;;;;;21.83;16.77;;;31.10;99.90;;;;;;5059425;28;20032;-61
2022/03/13 05:48:36;;;;;;;23.67;15.45;;;31.00;99.90;;;;;;5051168;28;20025;-60
2022/03/13 05:51:03;;;;;;;23.20;17.00;;;31.00;99.90;;;;;;5055710;28;20437;-61
2022/03/13 05:53:30;;;;;;;25.70;19.67;;;31.00;99.90;;;;;;5057827;28;20040;-61
2022/03/13 05:55:57;;;;;;;25.75;18.60;;;30.80;99.90;;;;;;5057973;28;20094;-61
2022/03/13 05:58:24;;;;;;;28.63;18.10;;;30.90;99.90;;;;;;5056320;28;20502;-61
2022/03/13 06:01:04;;;;;;;22.15;16.00;;;31.00;99.90;;;;;;5056696;28;20096;-61
2022/03/13 06:03:32;;;;;;;33.35;23.92;;;31.00;99.90;;;;;;5054530;28;20028;-61
2022/03/13 06:06:01;;;;;;;24.10;16.70;;;31.00;99.90;;;;;;5055914;28;20032;-61
2022/03/13 06:08:28;;;;;;;29.13;20.08;;;31.20;99.90;;;;;;5054949;28;20036;-61
2022/03/13 06:10:54;;;;;;;24.85;17.60;;;31.40;99.90;;;;;;5055638;28;20025;-62
2022/03/13 06:13:22;;;;;;;22.65;17.17;;;31.40;99.90;;;;;;5056173;28;20040;-61
2022/03/13 06:15:50;;;;;;;23.33;16.85;;;31.50;99.90;;;;;;5056233;28;20045;-61
2022/03/13 06:18:17;;;;;;;25.33;16.98;;;31.50;99.90;;;;;;5057848;28;20474;-61
2022/03/13 06:20:43;;;;;;;18.98;16.25;;;31.60;99.90;;;;;;5056346;28;20074;-61
2022/03/13 06:23:13;;;;;;;27.45;17.08;;;31.70;99.90;;;;;;5056628;28;20052;-62
2022/03/13 06:25:43;;;;;;;24.98;18.15;;;31.80;99.90;;;;;;5054354;28;20066;-61
2022/03/13 06:28:10;;;;;;;23.17;17.85;;;31.80;99.90;;;;;;5054539;28;20025;-61
2022/03/13 06:30:38;;;;;;;25.15;17.88;;;31.70;99.90;;;;;;5052923;28;20052;-62
2022/03/13 06:33:05;;;;;;;22.73;18.30;;;31.70;99.90;;;;;;5055118;28;20079;-62
2022/03/13 06:35:32;;;;;;;19.95;17.75;;;31.70;99.90;;;;;;5054990;28;20037;-63
2022/03/13 06:37:59;;;;;;;20.67;16.85;;;31.70;99.90;;;;;;5051822;28;20067;-61
2022/03/13 06:40:26;;;;;;;30.67;16.77;;;31.60;99.90;;;;;;5053784;28;20040;-62
2022/03/13 06:42:55;;;;;;;24.35;17.20;;;31.50;99.90;;;;;;5052229;28;20093;-63
2022/03/13 06:45:22;;;;;;;25.90;20.85;;;31.60;99.90;;;;;;5048004;28;20466;-61
2022/03/13 06:47:49;;;;;;;38.10;31.92;;;31.70;99.90;;;;;;5053747;28;20024;-62
2022/03/13 06:50:23;;;;;;;34.08;25.50;;;31.70;99.90;;;;;;5053381;28;20454;-61
2022/03/13 06:52:51;;;;;;;177.60;138.05;;;31.90;99.90;;;;;;5055388;28;20367;-61
2022/03/13 06:55:20;;;;;;;43.00;35.30;;;32.00;99.90;;;;;;5054327;28;20021;-61
2022/03/13 06:57:47;;;;;;;22.40;17.27;;;31.90;99.90;;;;;;5054726;28;20512;-62
2022/03/13 07:00:15;;;;;;;24.98;16.73;;;31.90;99.90;;;;;;5055056;28;20025;-64
2022/03/13 07:02:42;;;;;;;20.25;16.50;;;31.80;99.90;;;;;;5056565;28;20063;-61
2022/03/13 07:05:09;;;;;;;22.30;17.38;;;31.80;99.90;;;;;;5055471;28;20458;-61
2022/03/13 07:07:35;;;;;;;23.40;17.48;;;31.80;99.90;;;;;;5056247;28;20037;-60
2022/03/13 07:10:04;;;;;;;26.38;18.63;;;31.80;99.90;;;;;;5055351;28;20067;-61
2022/03/13 07:12:30;;;;;;;26.60;17.98;;;31.70;99.90;;;;;;5052292;28;20029;-61
2022/03/13 07:14:57;;;;;;;21.15;16.33;;;31.70;99.90;;;;;;5048563;28;20505;-61
2022/03/13 07:17:24;;;;;;;18.88;15.98;;;31.70;99.90;;;;;;5054341;28;20200;-61
2022/03/13 07:19:51;;;;;;;23.23;17.55;;;31.60;99.90;;;;;;5054194;28;20024;-61
2022/03/13 07:22:18;;;;;;;21.38;17.90;;;31.70;99.90;;;;;;5054024;28;20248;-61
2022/03/13 07:24:46;;;;;;;25.23;17.98;;;31.70;99.90;;;;;;5052433;28;20490;-62
2022/03/13 07:27:16;;;;;;;40.17;28.83;;;31.60;99.90;;;;;;5044630;28;20033;-61
2022/03/13 07:29:43;;;;;;;54.72;40.85;;;31.60;99.90;;;;;;5043705;28;20104;-60
2022/03/13 07:32:20;;;;;;;40.17;28.20;;;31.60;99.90;;;;;;5053053;28;20462;-53
2022/03/13 07:34:46;;;;;;;47.35;31.50;;;31.50;99.90;;;;;;5054893;28;20044;-61
2022/03/13 07:37:13;;;;;;;33.83;23.55;;;31.40;99.90;;;;;;5054853;28;20029;-61
2022/03/13 07:39:41;;;;;;;27.77;19.02;;;31.40;99.90;;;;;;5054386;28;20462;-61
2022/03/13 07:42:10;;;;;;;32.67;19.17;;;31.30;99.90;;;;;;5054335;28;20029;-60
2022/03/13 07:44:36;;;;;;;27.17;18.05;;;31.20;99.90;;;;;;5054346;28;20112;-60
2022/03/13 07:47:03;;;;;;;36.80;21.40;;;31.10;99.90;;;;;;5054412;28;20028;-60
2022/03/13 07:49:30;;;;;;;33.33;22.42;;;31.00;99.90;;;;;;5054312;28;20373;-60
2022/03/13 07:51:57;;;;;;;28.30;22.50;;;30.80;99.90;;;;;;5053256;28;20035;-61
2022/03/13 07:54:23;;;;;;;32.03;22.48;;;30.70;99.90;;;;;;5053459;28;20037;-61
2022/03/13 07:56:50;;;;;;;33.53;24.05;;;30.70;99.90;;;;;;5034255;28;20057;-61
2022/03/13 07:59:17;;;;;;;40.13;31.25;;;30.60;99.90;;;;;;5040788;28;20060;-60
2022/03/13 08:01:43;;;;;;;47.33;37.08;;;30.50;99.90;;;;;;5045045;28;20029;-61
2022/03/13 08:04:10;;;;;;;47.85;33.97;;;30.30;99.90;;;;;;5033680;28;20057;-62
2022/03/13 08:06:39;;;;;;;43.67;30.83;;;30.00;99.90;;;;;;5053766;28;20057;-60
2022/03/13 08:09:07;;;;;;;45.83;30.63;;;29.70;99.90;;;;;;5053526;28;20517;-61
2022/03/13 08:11:35;;;;;;;41.63;30.38;;;29.50;99.90;;;;;;5053309;28;20104;-60
2022/03/13 08:14:03;;;;;;;46.25;33.47;;;29.20;99.90;;;;;;5044363;28;20057;-61
2022/03/13 08:16:30;;;;;;;41.55;34.20;;;29.20;99.90;;;;;;5033624;28;20029;-61
2022/03/13 08:18:57;;;;;;;48.88;36.58;;;29.30;99.90;;;;;;5050187;28;20576;-61
2022/03/13 08:21:24;;;;;;;47.30;35.83;;;29.30;99.90;;;;;;5053081;28;20065;-61
2022/03/13 08:23:50;;;;;;;41.35;29.20;;;29.20;99.90;;;;;;5053210;28;20037;-61
2022/03/13 08:26:17;;;;;;;39.42;31.83;;;29.20;99.90;;;;;;5053570;28;20457;-61
2022/03/13 08:28:44;;;;;;;40.38;32.00;;;29.40;99.90;;;;;;5053241;28;20036;-61
2022/03/13 08:31:12;;;;;;;43.10;32.08;;;29.40;99.90;;;;;;5053173;28;20074;-61
2022/03/13 08:33:39;;;;;;;38.28;30.55;;;29.30;99.90;;;;;;5053113;28;20041;-61
2022/03/13 08:36:05;;;;;;;34.05;27.17;;;29.10;99.90;;;;;;5052886;28;20025;-61
2022/03/13 08:38:32;;;;;;;45.58;29.40;;;29.10;99.90;;;;;;5053098;28;20092;-62
2022/03/13 08:40:59;;;;;;;31.70;24.77;;;29.10;99.90;;;;;;5053190;28;20036;-61
2022/03/13 08:43:25;;;;;;;32.78;26.30;;;29.10;99.90;;;;;;5053566;28;20032;-61
2022/03/13 08:45:52;;;;;;;41.53;27.35;;;29.10;99.90;;;;;;5053380;28;20080;-60
2022/03/13 08:48:19;;;;;;;32.85;25.55;;;29.00;99.90;;;;;;5053412;28;20029;-60
2022/03/13 08:50:45;;;;;;;37.20;28.17;;;29.00;99.90;;;;;;5053113;28;20035;-61
2022/03/13 08:53:12;;;;;;;40.22;29.30;;;29.00;99.90;;;;;;5053446;28;20021;-61
2022/03/13 08:55:39;;;;;;;45.58;31.30;;;29.00;99.90;;;;;;5053466;28;20041;-61
2022/03/13 08:58:06;;;;;;;34.63;27.17;;;29.00;99.90;;;;;;5053389;28;20063;-61
2022/03/13 09:00:34;;;;;;;34.63;26.42;;;29.00;99.90;;;;;;5053475;28;20033;-61
2022/03/13 09:03:01;;;;;;;40.88;28.50;;;29.10;99.90;;;;;;5055186;28;20025;-61
2022/03/13 09:05:28;;;;;;;41.53;30.02;;;29.10;99.90;;;;;;5057325;28;20478;-61
2022/03/13 09:07:55;;;;;;;35.05;25.75;;;29.10;99.90;;;;;;5057205;28;20033;-61
2022/03/13 09:10:21;;;;;;;39.10;28.40;;;29.10;99.90;;;;;;5056930;28;20504;-61
2022/03/13 09:12:48;;;;;;;41.17;29.00;;;29.20;99.90;;;;;;5057230;28;20033;-61
2022/03/13 09:15:15;;;;;;;37.58;28.40;;;29.10;99.90;;;;;;5056800;28;20045;-61
2022/03/13 09:17:42;;;;;;;40.13;27.75;;;29.10;99.90;;;;;;5057066;28;20159;-61
2022/03/13 09:20:09;;;;;;;40.78;27.10;;;29.00;99.90;;;;;;5056911;28;20021;-60
2022/03/13 09:22:36;;;;;;;38.75;27.63;;;29.10;99.90;;;;;;5057003;28;20029;-61
2022/03/13 09:25:03;;;;;;;37.03;25.75;;;29.20;99.90;;;;;;5056949;28;20110;-61
2022/03/13 09:27:31;;;;;;;41.15;28.55;;;29.20;99.90;;;;;;5057020;28;20025;-62
2022/03/13 09:29:58;;;;;;;35.55;25.70;;;29.30;99.90;;;;;;5056873;28;20025;-62
2022/03/13 09:32:26;;;;;;;36.33;25.88;;;29.30;99.90;;;;;;5055962;28;20103;-61
2022/03/13 09:34:54;;;;;;;37.22;26.27;;;29.30;99.90;;;;;;5055315;28;20377;-61
2022/03/13 09:37:21;;;;;;;35.55;26.15;;;29.30;99.90;;;;;;5053275;28;20058;-60
2022/03/13 09:39:48;;;;;;;40.70;27.42;;;29.40;99.90;;;;;;5055624;28;20044;-62
2022/03/13 09:42:15;;;;;;;35.45;27.35;;;29.40;99.90;;;;;;5055969;28;20028;-61
2022/03/13 09:44:42;;;;;;;42.70;27.27;;;29.40;99.90;;;;;;5054368;28;20033;-62
2022/03/13 09:47:11;;;;;;;72.65;62.72;;;29.40;99.90;;;;;;5052130;28;20063;-62
2022/03/13 09:49:41;;;;;;;96.50;81.28;;;29.30;99.90;;;;;;5037511;28;20053;-62
2022/03/13 09:52:09;;;;;;;48.65;35.10;;;29.20;99.90;;;;;;5036448;28;20029;-62
2022/03/13 09:54:36;;;;;;;22.42;18.20;;;29.10;99.90;;;;;;5036378;28;20095;-61
2022/03/13 09:57:04;;;;;;;22.75;16.58;;;29.00;99.90;;;;;;5052252;28;20038;-62
2022/03/13 09:59:31;;;;;;;19.58;14.98;;;28.90;99.90;;;;;;5055423;28;20060;-61
2022/03/13 10:01:59;;;;;;;19.75;15.07;;;28.90;99.90;;;;;;5072997;28;20469;-61
2022/03/13 10:04:25;;;;;;;17.65;12.13;;;28.80;99.90;;;;;;5071343;28;20025;-62
2022/03/13 10:07:10;;;;;;;18.27;15.07;;;28.70;99.90;;;;;;5055693;28;20382;-60
2022/03/13 10:09:38;;;;;;;17.48;13.38;;;28.70;99.90;;;;;;5055726;28;20021;-60
2022/03/13 10:12:14;;;;;;;18.52;13.18;;;28.70;99.90;;;;;;5055551;28;20033;-61
2022/03/13 10:15:03;;;;;;;15.07;12.50;;;28.70;99.90;;;;;;5053790;28;20080;-60
2022/03/13 10:17:32;;;;;;;19.35;13.50;;;28.80;99.90;;;;;;5055236;28;20021;-60
2022/03/13 10:20:23;;;;;;;18.45;12.00;;;28.70;99.90;;;;;;5049767;28;20048;-60
2022/03/13 10:23:16;;;;;;;18.95;12.90;;;28.60;99.90;;;;;;5052630;28;20033;-62
2022/03/13 10:25:44;;;;;;;14.80;11.57;;;28.60;99.90;;;;;;5053096;28;20044;-62
2022/03/13 10:28:21;;;;;;;46.38;37.60;;;28.50;99.90;;;;;;5055533;28;20021;-61
2022/03/13 10:30:59;;;;;;;120.93;85.18;;;28.50;99.90;;;;;;5055103;28;20032;-62
2022/03/13 10:33:29;;;;;;;39.65;31.98;;;28.50;99.90;;;;;;5053768;28;20061;-62
2022/03/13 10:36:08;;;;;;;64.85;49.15;;;28.40;99.90;;;;;;5055684;28;20363;-61
2022/03/13 10:38:35;;;;;;;61.17;44.72;;;28.40;99.90;;;;;;5056054;28;20033;-60
2022/03/13 10:41:08;;;;;;;40.85;32.67;;;28.50;99.90;;;;;;5055774;28;20049;-60
2022/03/13 10:43:52;;;;;;;43.42;37.15;;;28.40;99.90;;;;;;5055566;28;20025;-61
2022/03/13 10:46:34;;;;;;;65.25;52.55;;;28.40;99.90;;;;;;5054822;28;20048;-61
2022/03/13 10:49:04;;;;;;;49.25;40.15;;;28.30;99.90;;;;;;5055515;28;20094;-60
2022/03/13 10:51:36;;;;;;;24.42;15.13;;;28.30;99.90;;;;;;5051305;28;20120;-61
2022/03/13 10:54:05;;;;;;;13.93;9.48;;;28.30;99.90;;;;;;5050488;28;20100;-60
2022/03/13 10:56:34;;;;;;;14.02;9.25;;;28.20;99.90;;;;;;5053259;28;20087;-60
2022/03/13 10:59:17;;;;;;;14.80;10.25;;;28.20;99.90;;;;;;5055086;28;20079;-60
2022/03/13 11:01:44;;;;;;;18.30;10.38;;;28.20;99.90;;;;;;5049919;28;20512;-60
2022/03/13 11:04:15;;;;;;;13.13;8.93;;;28.20;99.90;;;;;;5054918;28;20032;-61
2022/03/13 11:06:43;;;;;;;15.88;9.98;;;28.20;99.90;;;;;;5051918;28;20027;-60
2022/03/13 11:09:10;;;;;;;12.88;9.10;;;28.20;99.90;;;;;;5054378;28;20033;-60
2022/03/13 11:11:36;;;;;;;13.05;8.93;;;28.20;99.90;;;;;;5054070;28;20035;-60
2022/03/13 11:14:03;;;;;;;14.73;9.45;;;28.20;99.90;;;;;;5054354;28;20052;-60
2022/03/13 11:16:32;;;;;;;15.23;9.60;;;28.20;99.90;;;;;;5054073;28;20128;-61
2022/03/13 11:19:04;;;;;;;19.85;13.48;;;28.30;99.90;;;;;;5054173;28;20033;-61
2022/03/13 11:21:32;;;;;;;15.23;10.88;;;28.30;99.90;;;;;;5053501;28;20024;-61
2022/03/13 11:24:00;;;;;;;15.95;9.55;;;28.40;99.90;;;;;;5054355;28;20037;-59
2022/03/13 11:26:30;;;;;;;16.70;8.93;;;28.40;99.90;;;;;;5054588;28;20029;-61
2022/03/13 11:28:58;;;;;;;13.98;9.32;;;28.40;99.90;;;;;;5053835;28;20037;-60
2022/03/13 11:31:35;;;;;;;14.52;8.50;;;28.40;99.90;;;;;;5054331;28;20458;-60
2022/03/13 11:34:20;;;;;;;13.43;8.80;;;28.40;99.90;;;;;;5054278;28;20033;-60
2022/03/13 11:36:51;;;;;;;16.08;11.13;;;28.40;99.90;;;;;;5054438;28;20137;-61
2022/03/13 11:39:25;;;;;;;18.00;11.43;;;28.30;99.90;;;;;;5054115;28;20413;-61
2022/03/13 11:41:52;;;;;;;14.30;8.85;;;28.30;99.90;;;;;;5051790;28;20466;-60
2022/03/13 11:44:38;;;;;;;14.35;9.32;;;28.20;99.90;;;;;;5051920;28;20028;-61
2022/03/13 11:47:22;;;;;;;18.25;9.38;;;28.20;99.90;;;;;;5034686;28;20017;-61
2022/03/13 11:49:49;;;;;;;18.25;10.10;;;28.30;99.90;;;;;;5048466;28;20021;-61
2022/03/13 11:52:20;;;;;;;15.45;9.90;;;28.20;99.90;;;;;;5050475;28;20017;-60
2022/03/13 11:54:47;;;;;;;21.13;10.93;;;28.20;99.90;;;;;;5051406;28;20072;-60
2022/03/13 11:57:15;;;;;;;23.45;12.60;;;28.20;99.90;;;;;;5053670;28;20052;-60
2022/03/13 11:59:49;;;;;;;20.73;12.93;;;28.30;99.90;;;;;;5052982;28;20045;-62
2022/03/13 12:02:38;;;;;;;22.10;13.38;;;28.30;99.90;;;;;;5053369;28;20026;-61
2022/03/13 12:05:26;;;;;;;21.90;14.52;;;28.20;99.90;;;;;;5052792;28;20056;-60
2022/03/13 12:07:54;;;;;;;20.13;13.52;;;28.20;99.90;;;;;;5051359;28;20017;-60
2022/03/13 12:10:41;;;;;;;20.27;13.73;;;28.20;99.90;;;;;;5053250;28;20054;-61
2022/03/13 12:13:08;;;;;;;22.30;14.20;;;28.20;99.90;;;;;;5050519;28;20017;-62
2022/03/13 12:15:35;;;;;;;21.63;14.18;;;28.10;99.90;;;;;;5052257;28;20045;-61
2022/03/13 12:18:27;;;;;;;25.98;17.33;;;28.20;99.90;;;;;;5044240;28;20082;-61
2022/03/13 12:21:05;;;;;;;27.73;18.73;;;28.10;99.90;;;;;;5049551;28;20025;-59
2022/03/13 12:23:33;;;;;;;34.53;22.08;;;28.00;99.90;;;;;;5052157;28;20393;-60
2022/03/13 12:26:13;;;;;;;31.48;19.55;;;28.00;99.90;;;;;;5053652;28;20029;-62
2022/03/13 12:28:40;;;;;;;29.55;20.33;;;28.00;99.90;;;;;;5053307;28;20025;-61
2022/03/13 12:31:06;;;;;;;28.65;20.27;;;28.00;99.90;;;;;;5067236;28;20078;-61
2022/03/13 12:33:36;;;;;;;36.53;21.38;;;28.10;99.90;;;;;;5073791;28;20087;-61
2022/03/13 12:36:03;;;;;;;33.45;20.58;;;28.00;99.90;;;;;;5053879;28;20021;-61
2022/03/13 12:38:33;;;;;;;37.58;22.45;;;28.00;99.90;;;;;;5053189;28;20024;-62